Ryoho Maru No.2 — JD2964 — position and weather

sailwx.info

Track history (hours):
 
Tides and Currents Weather Stations Pressure Air Temp Water Temp Dewpoint Dewpoint Depression Visibility Wind Speed Wind Dir Waves Ship Positions

Ryoho Maru No.2

Last reported at 2016-Apr-22 19:20 UTC. Time now 2016-Apr-30 07:10 UTC.
Position N 36°17' E 140°59'.

Length 57 m; draft 4 m.

Type: Tanker. MMSI: 431001062.

Date/timePositionNaut miles runAvg speedWind from/ knotsBaromVisibWave heightAir tempDewpointWater temp
2016-Apr-22 19:20N 36°17' E 140°59'8 8.5
2016-Apr-22 18:25N 36°09' E 140°58'10 8.6
2016-Apr-22 17:13N 35°59' E 140°56'15 8.9
2016-Apr-22 15:32N 35°44' E 140°55'12 9.1
2016-Apr-22 14:15N 35°34' E 140°48'7 9.4
2016-Apr-22 13:33N 35°29' E 140°43'11 9.2
2016-Apr-22 12:21N 35°20' E 140°34'26 9.4
2016-Apr-22 09:33N 35°02' E 140°11'8 8.2
2016-Apr-22 08:34N 34°57' E 140°03'14 6.6
2016-Apr-22 06:25N 34°54' E 139°47'8 7.7
2016-Apr-22 05:27N 35°01' E 139°44'8 9.2
2016-Apr-22 04:33N 35°09' E 139°46'9 8.7
2016-Apr-22 03:33N 35°18' E 139°44'8 8.0
2016-Apr-22 02:34N 35°26' E 139°45'6 5.5
2016-Apr-22 01:32N 35°32' E 139°45'0 0.0
2016-Apr-22 00:32N 35°32' E 139°45'1 1.0
2016-Apr-21 23:34N 35°31' E 139°46'9 9.1
2016-Apr-21 22:33N 35°29' E 139°57'2 1.9
2016-Apr-21 21:27N 35°29' E 139°60'0 0.0
2016-Apr-21 20:33N 35°29' E 139°60'0 0.0
2016-Apr-21 19:33N 35°29' E 139°60'0 0.0
2016-Apr-21 18:33N 35°29' E 139°60'0 0.0
2016-Apr-21 17:33N 35°29' E 139°60'0 0.0
2016-Apr-21 16:33N 35°29' E 139°60'0 0.1
2016-Apr-21 15:33N 35°29' E 139°60'0 0.0
2016-Apr-21 14:31N 35°29' E 139°60'0 0.0
2016-Apr-21 13:33N 35°29' E 139°60'0 0.0
2016-Apr-21 12:33N 35°29' E 139°60'0 0.0
2016-Apr-21 11:32N 35°29' E 139°60'0 0.0
2016-Apr-21 10:29N 35°29' E 139°60'0 0.0
2016-Apr-21 09:30N 35°29' E 139°60'0 0.0
2016-Apr-21 08:33N 35°29' E 139°60'0 0.0
2016-Apr-21 07:32N 35°29' E 139°60'0 0.0
2016-Apr-21 06:31N 35°29' E 139°60'0 0.0
2016-Apr-21 05:31N 35°29' E 139°60'1 1.3
2016-Apr-21 04:28N 35°28' E 140°01'0 0.0
2016-Apr-21 03:22N 35°28' E 140°01'0 0.0
2016-Apr-21 02:28N 35°28' E 140°01'0 0.0
2016-Apr-21 01:28N 35°28' E 140°01'0 0.0
2016-Apr-21 00:28N 35°28' E 140°01'0 0.0
2016-Apr-20 23:28N 35°28' E 140°01'1 1.5
2016-Apr-20 22:33N 35°29' E 139°60'0 0.0
2016-Apr-20 21:33N 35°29' E 139°60'0 0.0
2016-Apr-20 20:33N 35°29' E 139°60'0 0.0
2016-Apr-20 19:33N 35°29' E 139°60'0 0.0
2016-Apr-20 18:27N 35°29' E 139°60'0 0.0
2016-Apr-20 17:27N 35°29' E 139°60'0 0.0
2016-Apr-20 16:33N 35°29' E 139°60'0 0.0
2016-Apr-20 15:27N 35°29' E 139°60'0 0.0
2016-Apr-20 14:33N 35°29' E 139°60'0 0.0
2016-Apr-20 13:33N 35°29' E 139°60'0 0.0
2016-Apr-20 12:33N 35°29' E 139°60'0 0.0
2016-Apr-20 11:30N 35°29' E 139°60'0 0.0
2016-Apr-20 10:33N 35°29' E 139°60'0 0.0
2016-Apr-20 09:33N 35°29' E 139°60'0 0.0
2016-Apr-20 08:27N 35°29' E 139°60'0 0.0
2016-Apr-20 07:33N 35°29' E 139°60'0 0.0
2016-Apr-20 06:33N 35°29' E 139°60'0 0.0
2016-Apr-20 05:33N 35°29' E 139°60'0 0.0
2016-Apr-20 04:33N 35°29' E 139°60'0 0.0
2016-Apr-20 03:27N 35°29' E 139°60'0 0.1
2016-Apr-20 02:33N 35°29' E 139°60'0 0.0
2016-Apr-20 01:27N 35°29' E 139°60'0 0.0
2016-Apr-20 00:33N 35°29' E 139°60'0 0.1
2016-Apr-19 23:33N 35°29' E 139°60'0 0.0
2016-Apr-19 22:33N 35°29' E 139°60'0 0.0
2016-Apr-19 21:21N 35°29' E 139°60'0 0.0
2016-Apr-19 20:33N 35°29' E 139°60'0 0.0
2016-Apr-19 19:33N 35°29' E 139°60'0 0.0
2016-Apr-19 18:33N 35°29' E 139°60'0 0.0
2016-Apr-19 17:33N 35°29' E 139°60'0 0.0
2016-Apr-19 16:33N 35°29' E 139°60'0 0.0
2016-Apr-19 15:33N 35°29' E 139°60'0 0.0
2016-Apr-19 14:33N 35°29' E 139°60'0 0.1
2016-Apr-19 13:33N 35°29' E 139°60'0 0.0
2016-Apr-19 12:30N 35°29' E 139°60'0 0.0
2016-Apr-19 11:33N 35°29' E 139°60'0 0.0
2016-Apr-19 10:33N 35°29' E 139°60'0 0.0
2016-Apr-19 09:33N 35°29' E 139°60'0 0.0
2016-Apr-19 08:33N 35°29' E 139°60'0 0.0
2016-Apr-19 07:33N 35°29' E 139°60'0 0.1
2016-Apr-19 06:33N 35°29' E 139°60'0 0.0
2016-Apr-19 05:33N 35°29' E 139°60'0 0.0
2016-Apr-19 04:33N 35°29' E 139°60'0 0.0
2016-Apr-19 03:33N 35°29' E 139°60'0 0.1
2016-Apr-19 02:33N 35°29' E 139°60'0 0.0
2016-Apr-19 01:33N 35°29' E 139°60'0 0.0
2016-Apr-19 00:27N 35°29' E 139°60'0 0.1
2016-Apr-18 23:33N 35°29' E 139°60'0 0.0
2016-Apr-18 22:33N 35°29' E 139°60'0 0.2
2016-Apr-18 21:33N 35°29' E 139°60'9 9.2
2016-Apr-18 20:33N 35°26' E 139°49'9 8.9
2016-Apr-18 19:33N 35°18' E 139°45'9 9.5
2016-Apr-18 18:33N 35°08' E 139°46'  
2016-Apr-15 06:30N 34°50' E 139°43'12 9.9
2016-Apr-15 05:15N 34°53' E 139°57'910.1
2016-Apr-15 04:23N 34°58' E 140°06'27 9.5
2016-Apr-15 01:32N 35°16' E 140°31'1310.3
2016-Apr-15 00:19N 35°26' E 140°40'30 9.8
2016-Apr-14 21:16N 35°53' E 140°56'1810.2
2016-Apr-14 19:30N 36°11' E 140°59'  
Track history (hours):
 
Tides and Currents Weather Stations Pressure Air Temp Water Temp Dewpoint Dewpoint Depression Visibility Wind Speed Wind Dir Waves Ship Positions

Ryoho Maru No.2

Last reported at 2016-Apr-22 19:20 UTC. Time now 2016-Apr-30 07:10 UTC.
Position N 36°17' E 140°59'.

Length 57 m; draft 4 m.

Type: Tanker. MMSI: 431001062.

Date/timePositionNaut miles runAvg speedWind from/ knotsBaromVisibWave heightAir tempDewpointWater temp
2016-Apr-22 19:20N 36°17' E 140°59'8 8.5
2016-Apr-22 18:25N 36°09' E 140°58'10 8.6
2016-Apr-22 17:13N 35°59' E 140°56'15 8.9
2016-Apr-22 15:32N 35°44' E 140°55'12 9.1
2016-Apr-22 14:15N 35°34' E 140°48'7 9.4
2016-Apr-22 13:33N 35°29' E 140°43'11 9.2
2016-Apr-22 12:21N 35°20' E 140°34'26 9.4
2016-Apr-22 09:33N 35°02' E 140°11'8 8.2
2016-Apr-22 08:34N 34°57' E 140°03'14 6.6
2016-Apr-22 06:25N 34°54' E 139°47'8 7.7
2016-Apr-22 05:27N 35°01' E 139°44'8 9.2
2016-Apr-22 04:33N 35°09' E 139°46'9 8.7
2016-Apr-22 03:33N 35°18' E 139°44'8 8.0
2016-Apr-22 02:34N 35°26' E 139°45'6 5.5
2016-Apr-22 01:32N 35°32' E 139°45'0 0.0
2016-Apr-22 00:32N 35°32' E 139°45'1 1.0
2016-Apr-21 23:34N 35°31' E 139°46'9 9.1
2016-Apr-21 22:33N 35°29' E 139°57'2 1.9
2016-Apr-21 21:27N 35°29' E 139°60'0 0.0
2016-Apr-21 20:33N 35°29' E 139°60'0 0.0
2016-Apr-21 19:33N 35°29' E 139°60'0 0.0
2016-Apr-21 18:33N 35°29' E 139°60'0 0.0
2016-Apr-21 17:33N 35°29' E 139°60'0 0.0
2016-Apr-21 16:33N 35°29' E 139°60'0 0.1
2016-Apr-21 15:33N 35°29' E 139°60'0 0.0
2016-Apr-21 14:31N 35°29' E 139°60'0 0.0
2016-Apr-21 13:33N 35°29' E 139°60'0 0.0
2016-Apr-21 12:33N 35°29' E 139°60'0 0.0
2016-Apr-21 11:32N 35°29' E 139°60'0 0.0
2016-Apr-21 10:29N 35°29' E 139°60'0 0.0
2016-Apr-21 09:30N 35°29' E 139°60'0 0.0
2016-Apr-21 08:33N 35°29' E 139°60'0 0.0
2016-Apr-21 07:32N 35°29' E 139°60'0 0.0
2016-Apr-21 06:31N 35°29' E 139°60'0 0.0
2016-Apr-21 05:31N 35°29' E 139°60'1 1.3
2016-Apr-21 04:28N 35°28' E 140°01'0 0.0
2016-Apr-21 03:22N 35°28' E 140°01'0 0.0
2016-Apr-21 02:28N 35°28' E 140°01'0 0.0
2016-Apr-21 01:28N 35°28' E 140°01'0 0.0
2016-Apr-21 00:28N 35°28' E 140°01'0 0.0
2016-Apr-20 23:28N 35°28' E 140°01'1 1.5
2016-Apr-20 22:33N 35°29' E 139°60'0 0.0
2016-Apr-20 21:33N 35°29' E 139°60'0 0.0
2016-Apr-20 20:33N 35°29' E 139°60'0 0.0
2016-Apr-20 19:33N 35°29' E 139°60'0 0.0
2016-Apr-20 18:27N 35°29' E 139°60'0 0.0
2016-Apr-20 17:27N 35°29' E 139°60'0 0.0
2016-Apr-20 16:33N 35°29' E 139°60'0 0.0
2016-Apr-20 15:27N 35°29' E 139°60'0 0.0
2016-Apr-20 14:33N 35°29' E 139°60'0 0.0
2016-Apr-20 13:33N 35°29' E 139°60'0 0.0
2016-Apr-20 12:33N 35°29' E 139°60'0 0.0
2016-Apr-20 11:30N 35°29' E 139°60'0 0.0
2016-Apr-20 10:33N 35°29' E 139°60'0 0.0
2016-Apr-20 09:33N 35°29' E 139°60'0 0.0
2016-Apr-20 08:27N 35°29' E 139°60'0 0.0
2016-Apr-20 07:33N 35°29' E 139°60'0 0.0
2016-Apr-20 06:33N 35°29' E 139°60'0 0.0
2016-Apr-20 05:33N 35°29' E 139°60'0 0.0
2016-Apr-20 04:33N 35°29' E 139°60'0 0.0
2016-Apr-20 03:27N 35°29' E 139°60'0 0.1
2016-Apr-20 02:33N 35°29' E 139°60'0 0.0
2016-Apr-20 01:27N 35°29' E 139°60'0 0.0
2016-Apr-20 00:33N 35°29' E 139°60'0 0.1
2016-Apr-19 23:33N 35°29' E 139°60'0 0.0
2016-Apr-19 22:33N 35°29' E 139°60'0 0.0
2016-Apr-19 21:21N 35°29' E 139°60'0 0.0
2016-Apr-19 20:33N 35°29' E 139°60'0 0.0
2016-Apr-19 19:33N 35°29' E 139°60'0 0.0
2016-Apr-19 18:33N 35°29' E 139°60'0 0.0
2016-Apr-19 17:33N 35°29' E 139°60'0 0.0
2016-Apr-19 16:33N 35°29' E 139°60'0 0.0
2016-Apr-19 15:33N 35°29' E 139°60'0 0.0
2016-Apr-19 14:33N 35°29' E 139°60'0 0.1
2016-Apr-19 13:33N 35°29' E 139°60'0 0.0
2016-Apr-19 12:30N 35°29' E 139°60'0 0.0
2016-Apr-19 11:33N 35°29' E 139°60'0 0.0
2016-Apr-19 10:33N 35°29' E 139°60'0 0.0
2016-Apr-19 09:33N 35°29' E 139°60'0 0.0
2016-Apr-19 08:33N 35°29' E 139°60'0 0.0
2016-Apr-19 07:33N 35°29' E 139°60'0 0.1
2016-Apr-19 06:33N 35°29' E 139°60'0 0.0
2016-Apr-19 05:33N 35°29' E 139°60'0 0.0
2016-Apr-19 04:33N 35°29' E 139°60'0 0.0
2016-Apr-19 03:33N 35°29' E 139°60'0 0.1
2016-Apr-19 02:33N 35°29' E 139°60'0 0.0
2016-Apr-19 01:33N 35°29' E 139°60'0 0.0
2016-Apr-19 00:27N 35°29' E 139°60'0 0.1
2016-Apr-18 23:33N 35°29' E 139°60'0 0.0
2016-Apr-18 22:33N 35°29' E 139°60'0 0.2
2016-Apr-18 21:33N 35°29' E 139°60'9 9.2
2016-Apr-18 20:33N 35°26' E 139°49'9 8.9
2016-Apr-18 19:33N 35°18' E 139°45'9 9.5
2016-Apr-18 18:33N 35°08' E 139°46'  
2016-Apr-15 06:30N 34°50' E 139°43'12 9.9
2016-Apr-15 05:15N 34°53' E 139°57'910.1
2016-Apr-15 04:23N 34°58' E 140°06'27 9.5
2016-Apr-15 01:32N 35°16' E 140°31'1310.3
2016-Apr-15 00:19N 35°26' E 140°40'30 9.8
2016-Apr-14 21:16N 35°53' E 140°56'1810.2
2016-Apr-14 19:30N 36°11' E 140°59'  

Dump ship's entire track history